logo
Search for airport 
image banner adimage banner adimage banner ad
image banner ad

CCQ3 - Debert

Located in , Canada

ICAO - CCQ3, IATA -

Data provided by Airmate  

General information

Coordinates: N45°25'9" W63°27'41"
Elevation is 136 feet MSL.
Magnetic variation is -018.1803° East
View others Airports in Nova Scotia

Operational data

Special qualification required
Current time UTC:
Current local time:
Weather at : CYHZ - Stanfield Intl ( 60 km )
METAR: CYHZ 282000Z 17017G24KT 3/4SM R23/6000FT/U R14/P6000FT/U -RA BR OVC004 14/13 A2978 RMK ST8 CIG RAG SLP088
TAF: TAF AMD CYHZ 282011Z 2820/2918 17015G25KT 3/4SM -RA BR OVC003 TEMPO 2820/2901 2SM -DZ BR OVC004 FM290100 19010G20KT 1/4SM -DZ FG VV002 FM290600 19010KT 1/4SM FG VV001 FM291300 20010KT P6SM BKN005 OVC012 FM291500 22012KT P6SM BKN015 RMK NXT FCST BY 282100Z
View NOTAMs / SUP AIP / TFR affecting this airport [VIEW]
Communications frequencies: [VIEW]

Runways:

RWY identifierQFULength (ft)Width (ft)SurfaceLDA (ft)
0529°3144150ASPH3144
23209°3144150ASPH3144
16135°5001150ASPH4504
34315°5001150ASPH5001
0973°4999150ASPH4999
27253°4999150ASPH4999

Airport contact information

Address: Canada

Other aviation service providers

Flight schools

Debert Flight Centre

Debert Flight Centre
cfi@flytfc.ca+19026622228

Satellite view of CCQ3